sensor_id;sensor_type;location;lat;lon;timestamp;temperature;humidity
4697;DHT22;2362;50.780;0.292;2023-04-10T00:00:40;10.60;99.90
4697;DHT22;2362;50.780;0.292;2023-04-10T00:03:07;10.60;99.90
4697;DHT22;2362;50.780;0.292;2023-04-10T00:05:33;10.60;99.90
4697;DHT22;2362;50.780;0.292;2023-04-10T00:08:24;10.60;99.90
4697;DHT22;2362;50.780;0.292;2023-04-10T00:10:50;10.70;99.90
4697;DHT22;2362;50.780;0.292;2023-04-10T00:13:17;10.70;99.90
4697;DHT22;2362;50.780;0.292;2023-04-10T00:15:43;10.70;99.90
4697;DHT22;2362;50.780;0.292;2023-04-10T00:18:08;10.70;99.90
4697;DHT22;2362;50.780;0.292;2023-04-10T00:20:34;10.70;99.90
4697;DHT22;2362;50.780;0.292;2023-04-10T00:23:00;10.70;99.90
4697;DHT22;2362;50.780;0.292;2023-04-10T00:25:26;10.70;99.90
4697;DHT22;2362;50.780;0.292;2023-04-10T00:27:54;10.70;99.90
4697;DHT22;2362;50.780;0.292;2023-04-10T00:30:20;10.70;99.90
4697;DHT22;2362;50.780;0.292;2023-04-10T00:32:47;10.70;99.90
4697;DHT22;2362;50.780;0.292;2023-04-10T00:35:13;10.70;99.90
4697;DHT22;2362;50.780;0.292;2023-04-10T00:37:39;10.70;99.90
4697;DHT22;2362;50.780;0.292;2023-04-10T00:40:05;10.70;99.90
4697;DHT22;2362;50.780;0.292;2023-04-10T00:42:31;10.70;99.90
4697;DHT22;2362;50.780;0.292;2023-04-10T00:44:58;10.70;99.90
4697;DHT22;2362;50.780;0.292;2023-04-10T00:47:24;10.70;99.90
4697;DHT22;2362;50.780;0.292;2023-04-10T00:49:50;10.70;99.90
4697;DHT22;2362;50.780;0.292;2023-04-10T00:52:16;10.70;99.90
4697;DHT22;2362;50.780;0.292;2023-04-10T00:54:42;10.70;99.90
4697;DHT22;2362;50.780;0.292;2023-04-10T00:57:08;10.70;99.90
4697;DHT22;2362;50.780;0.292;2023-04-10T00:59:34;10.70;99.90
4697;DHT22;2362;50.780;0.292;2023-04-10T01:02:00;10.70;99.90
4697;DHT22;2362;50.780;0.292;2023-04-10T01:04:26;10.80;99.90
4697;DHT22;2362;50.780;0.292;2023-04-10T01:09:40;10.80;99.90
4697;DHT22;2362;50.780;0.292;2023-04-10T01:12:33;10.80;99.90
4697;DHT22;2362;50.780;0.292;2023-04-10T01:15:27;10.80;99.90
4697;DHT22;2362;50.780;0.292;2023-04-10T01:18:49;10.70;99.90
4697;DHT22;2362;50.780;0.292;2023-04-10T01:21:20;10.80;99.90
4697;DHT22;2362;50.780;0.292;2023-04-10T01:29:55;10.80;99.90
4697;DHT22;2362;50.780;0.292;2023-04-10T01:32:23;10.80;99.90
4697;DHT22;2362;50.780;0.292;2023-04-10T01:34:51;10.80;99.90
4697;DHT22;2362;50.780;0.292;2023-04-10T01:37:29;10.80;99.90
4697;DHT22;2362;50.780;0.292;2023-04-10T01:40:00;10.90;99.90
4697;DHT22;2362;50.780;0.292;2023-04-10T01:42:33;10.90;99.90
4697;DHT22;2362;50.780;0.292;2023-04-10T01:45:01;10.90;99.90
4697;DHT22;2362;50.780;0.292;2023-04-10T01:47:28;11.00;99.90
4697;DHT22;2362;50.780;0.292;2023-04-10T01:49:55;11.00;99.90
4697;DHT22;2362;50.780;0.292;2023-04-10T01:52:24;11.00;99.90
4697;DHT22;2362;50.780;0.292;2023-04-10T01:54:52;11.10;99.90
4697;DHT22;2362;50.780;0.292;2023-04-10T01:57:18;11.20;99.90
4697;DHT22;2362;50.780;0.292;2023-04-10T01:59:45;11.20;99.90
4697;DHT22;2362;50.780;0.292;2023-04-10T02:02:11;11.20;99.90
4697;DHT22;2362;50.780;0.292;2023-04-10T02:04:36;11.10;99.90
4697;DHT22;2362;50.780;0.292;2023-04-10T02:07:08;11.20;99.90
4697;DHT22;2362;50.780;0.292;2023-04-10T02:12:05;11.20;99.90
4697;DHT22;2362;50.780;0.292;2023-04-10T02:14:32;11.10;99.90
4697;DHT22;2362;50.780;0.292;2023-04-10T02:17:01;11.10;99.90
4697;DHT22;2362;50.780;0.292;2023-04-10T02:19:27;11.10;99.90
4697;DHT22;2362;50.780;0.292;2023-04-10T02:21:55;11.10;99.90
4697;DHT22;2362;50.780;0.292;2023-04-10T02:24:22;11.10;99.90
4697;DHT22;2362;50.780;0.292;2023-04-10T02:26:49;11.00;99.90
4697;DHT22;2362;50.780;0.292;2023-04-10T02:29:16;11.00;99.90
4697;DHT22;2362;50.780;0.292;2023-04-10T02:31:42;11.00;99.90
4697;DHT22;2362;50.780;0.292;2023-04-10T02:34:09;10.90;99.90
4697;DHT22;2362;50.780;0.292;2023-04-10T02:36:37;10.90;99.90
4697;DHT22;2362;50.780;0.292;2023-04-10T02:39:04;10.90;99.90
4697;DHT22;2362;50.780;0.292;2023-04-10T02:41:29;10.90;99.90
4697;DHT22;2362;50.780;0.292;2023-04-10T02:43:55;10.90;99.90
4697;DHT22;2362;50.780;0.292;2023-04-10T02:46:21;11.00;99.90
4697;DHT22;2362;50.780;0.292;2023-04-10T02:48:46;10.90;99.90
4697;DHT22;2362;50.780;0.292;2023-04-10T02:51:12;10.90;99.90
4697;DHT22;2362;50.780;0.292;2023-04-10T02:53:40;10.90;99.90
4697;DHT22;2362;50.780;0.292;2023-04-10T02:56:06;10.90;99.90
4697;DHT22;2362;50.780;0.292;2023-04-10T02:58:33;10.90;99.90
4697;DHT22;2362;50.780;0.292;2023-04-10T03:01:00;10.80;99.90
4697;DHT22;2362;50.780;0.292;2023-04-10T03:03:27;10.80;99.90
4697;DHT22;2362;50.780;0.292;2023-04-10T03:05:53;10.70;99.90
4697;DHT22;2362;50.780;0.292;2023-04-10T03:08:18;10.80;99.90
4697;DHT22;2362;50.780;0.292;2023-04-10T03:10:46;10.80;99.90
4697;DHT22;2362;50.780;0.292;2023-04-10T03:13:15;10.80;99.90
4697;DHT22;2362;50.780;0.292;2023-04-10T03:15:40;10.70;99.90
4697;DHT22;2362;50.780;0.292;2023-04-10T03:18:06;10.70;99.90
4697;DHT22;2362;50.780;0.292;2023-04-10T03:20:35;10.80;99.90
4697;DHT22;2362;50.780;0.292;2023-04-10T03:23:01;10.80;99.90
4697;DHT22;2362;50.780;0.292;2023-04-10T03:25:28;10.70;99.90
4697;DHT22;2362;50.780;0.292;2023-04-10T03:27:56;10.70;99.90
4697;DHT22;2362;50.780;0.292;2023-04-10T03:30:21;10.70;99.90
4697;DHT22;2362;50.780;0.292;2023-04-10T03:32:47;10.70;99.90
4697;DHT22;2362;50.780;0.292;2023-04-10T03:35:38;10.70;99.90
4697;DHT22;2362;50.780;0.292;2023-04-10T03:38:29;10.70;99.90
4697;DHT22;2362;50.780;0.292;2023-04-10T03:40:55;10.70;99.90
4697;DHT22;2362;50.780;0.292;2023-04-10T03:43:21;10.70;99.90
4697;DHT22;2362;50.780;0.292;2023-04-10T03:45:46;10.70;99.90
4697;DHT22;2362;50.780;0.292;2023-04-10T03:48:12;10.60;99.90
4697;DHT22;2362;50.780;0.292;2023-04-10T03:50:38;10.70;99.90
4697;DHT22;2362;50.780;0.292;2023-04-10T03:53:03;10.70;99.90
4697;DHT22;2362;50.780;0.292;2023-04-10T03:55:29;10.60;99.90
4697;DHT22;2362;50.780;0.292;2023-04-10T03:57:55;10.70;99.90
4697;DHT22;2362;50.780;0.292;2023-04-10T04:00:23;10.70;99.90
4697;DHT22;2362;50.780;0.292;2023-04-10T04:02:48;10.60;99.90
4697;DHT22;2362;50.780;0.292;2023-04-10T04:05:18;10.60;99.90
4697;DHT22;2362;50.780;0.292;2023-04-10T04:07:44;10.60;99.90
4697;DHT22;2362;50.780;0.292;2023-04-10T04:10:09;10.60;99.90
4697;DHT22;2362;50.780;0.292;2023-04-10T04:13:00;10.60;99.90
4697;DHT22;2362;50.780;0.292;2023-04-10T04:15:28;10.60;99.90
4697;DHT22;2362;50.780;0.292;2023-04-10T04:17:55;10.60;99.90
4697;DHT22;2362;50.780;0.292;2023-04-10T04:20:21;10.50;99.90
4697;DHT22;2362;50.780;0.292;2023-04-10T04:22:46;10.50;99.90
4697;DHT22;2362;50.780;0.292;2023-04-10T04:25:12;10.50;99.90
4697;DHT22;2362;50.780;0.292;2023-04-10T04:27:38;10.50;99.90
4697;DHT22;2362;50.780;0.292;2023-04-10T04:30:04;10.50;99.90
4697;DHT22;2362;50.780;0.292;2023-04-10T04:32:30;10.50;99.90
4697;DHT22;2362;50.780;0.292;2023-04-10T04:34:56;10.50;99.90
4697;DHT22;2362;50.780;0.292;2023-04-10T04:37:22;10.50;99.90
4697;DHT22;2362;50.780;0.292;2023-04-10T04:39:47;10.50;99.90
4697;DHT22;2362;50.780;0.292;2023-04-10T04:42:13;10.60;99.90
4697;DHT22;2362;50.780;0.292;2023-04-10T04:44:38;10.60;99.90
4697;DHT22;2362;50.780;0.292;2023-04-10T04:47:06;10.60;99.90
4697;DHT22;2362;50.780;0.292;2023-04-10T04:49:32;10.60;99.90
4697;DHT22;2362;50.780;0.292;2023-04-10T04:51:58;10.50;99.90
4697;DHT22;2362;50.780;0.292;2023-04-10T04:54:23;10.60;99.90
4697;DHT22;2362;50.780;0.292;2023-04-10T04:56:49;10.60;99.90
4697;DHT22;2362;50.780;0.292;2023-04-10T04:59:14;10.50;99.90
4697;DHT22;2362;50.780;0.292;2023-04-10T05:01:40;10.50;99.90
4697;DHT22;2362;50.780;0.292;2023-04-10T05:04:06;10.50;99.90
4697;DHT22;2362;50.780;0.292;2023-04-10T05:06:31;10.50;99.90
4697;DHT22;2362;50.780;0.292;2023-04-10T05:08:57;10.50;99.90
4697;DHT22;2362;50.780;0.292;2023-04-10T05:11:22;10.50;99.90
4697;DHT22;2362;50.780;0.292;2023-04-10T05:13:48;10.50;99.90
4697;DHT22;2362;50.780;0.292;2023-04-10T05:16:14;10.50;99.90
4697;DHT22;2362;50.780;0.292;2023-04-10T05:19:05;10.50;99.90
4697;DHT22;2362;50.780;0.292;2023-04-10T05:21:56;10.50;99.90
4697;DHT22;2362;50.780;0.292;2023-04-10T05:24:47;10.50;99.90
4697;DHT22;2362;50.780;0.292;2023-04-10T05:27:38;10.50;99.90
4697;DHT22;2362;50.780;0.292;2023-04-10T05:30:29;10.50;99.90
4697;DHT22;2362;50.780;0.292;2023-04-10T05:33:20;10.50;99.90
4697;DHT22;2362;50.780;0.292;2023-04-10T05:35:48;10.50;99.90
4697;DHT22;2362;50.780;0.292;2023-04-10T05:38:14;10.50;99.90
4697;DHT22;2362;50.780;0.292;2023-04-10T05:40:44;10.50;99.90
4697;DHT22;2362;50.780;0.292;2023-04-10T05:43:10;10.50;99.90
4697;DHT22;2362;50.780;0.292;2023-04-10T05:45:35;10.40;99.90
4697;DHT22;2362;50.780;0.292;2023-04-10T05:48:01;10.30;99.90
4697;DHT22;2362;50.780;0.292;2023-04-10T05:50:26;10.30;99.90
4697;DHT22;2362;50.780;0.292;2023-04-10T05:52:53;10.30;99.90
4697;DHT22;2362;50.780;0.292;2023-04-10T05:55:19;10.30;99.90
4697;DHT22;2362;50.780;0.292;2023-04-10T05:57:45;10.30;99.90
4697;DHT22;2362;50.780;0.292;2023-04-10T06:00:11;10.30;99.90
4697;DHT22;2362;50.780;0.292;2023-04-10T06:02:38;10.30;99.90
4697;DHT22;2362;50.780;0.292;2023-04-10T06:05:04;10.30;99.90
4697;DHT22;2362;50.780;0.292;2023-04-10T06:07:30;10.40;99.90
4697;DHT22;2362;50.780;0.292;2023-04-10T06:09:57;10.30;99.90
4697;DHT22;2362;50.780;0.292;2023-04-10T06:12:23;10.30;99.90
4697;DHT22;2362;50.780;0.292;2023-04-10T06:14:48;10.40;99.90
4697;DHT22;2362;50.780;0.292;2023-04-10T06:17:14;10.40;99.90
4697;DHT22;2362;50.780;0.292;2023-04-10T06:19:40;10.40;99.90
4697;DHT22;2362;50.780;0.292;2023-04-10T06:22:05;10.40;99.90
4697;DHT22;2362;50.780;0.292;2023-04-10T06:24:33;10.30;99.90
4697;DHT22;2362;50.780;0.292;2023-04-10T06:26:58;10.30;99.90
4697;DHT22;2362;50.780;0.292;2023-04-10T06:29:24;10.40;99.90
4697;DHT22;2362;50.780;0.292;2023-04-10T06:31:50;10.40;99.90
4697;DHT22;2362;50.780;0.292;2023-04-10T06:34:16;10.30;99.90
4697;DHT22;2362;50.780;0.292;2023-04-10T06:36:41;10.30;99.90
4697;DHT22;2362;50.780;0.292;2023-04-10T06:39:08;10.30;99.90
4697;DHT22;2362;50.780;0.292;2023-04-10T06:41:33;10.30;99.90
4697;DHT22;2362;50.780;0.292;2023-04-10T06:43:59;10.30;99.90
4697;DHT22;2362;50.780;0.292;2023-04-10T06:46:26;10.40;99.90
4697;DHT22;2362;50.780;0.292;2023-04-10T06:48:52;10.40;99.90
4697;DHT22;2362;50.780;0.292;2023-04-10T06:51:17;10.40;99.90
4697;DHT22;2362;50.780;0.292;2023-04-10T06:53:43;10.30;99.90
4697;DHT22;2362;50.780;0.292;2023-04-10T06:56:09;10.30;99.90
4697;DHT22;2362;50.780;0.292;2023-04-10T06:58:35;10.30;99.90
4697;DHT22;2362;50.780;0.292;2023-04-10T07:01:00;10.30;99.90
4697;DHT22;2362;50.780;0.292;2023-04-10T07:03:30;10.30;99.90
4697;DHT22;2362;50.780;0.292;2023-04-10T07:05:56;10.30;99.90
4697;DHT22;2362;50.780;0.292;2023-04-10T07:08:22;10.30;99.90
4697;DHT22;2362;50.780;0.292;2023-04-10T07:10:48;10.30;99.90
4697;DHT22;2362;50.780;0.292;2023-04-10T07:13:14;10.30;99.90
4697;DHT22;2362;50.780;0.292;2023-04-10T07:15:39;10.30;99.90
4697;DHT22;2362;50.780;0.292;2023-04-10T07:18:05;10.40;99.90
4697;DHT22;2362;50.780;0.292;2023-04-10T07:20:31;10.40;99.90
4697;DHT22;2362;50.780;0.292;2023-04-10T07:22:56;10.40;99.90
4697;DHT22;2362;50.780;0.292;2023-04-10T07:25:22;10.40;99.90
4697;DHT22;2362;50.780;0.292;2023-04-10T07:27:48;10.40;99.90
4697;DHT22;2362;50.780;0.292;2023-04-10T07:30:13;10.40;99.90
4697;DHT22;2362;50.780;0.292;2023-04-10T07:32:39;10.40;99.90
4697;DHT22;2362;50.780;0.292;2023-04-10T07:35:06;10.50;99.90
4697;DHT22;2362;50.780;0.292;2023-04-10T07:37:32;10.40;99.90
4697;DHT22;2362;50.780;0.292;2023-04-10T07:39:58;10.50;99.90
4697;DHT22;2362;50.780;0.292;2023-04-10T07:42:49;10.50;99.90
4697;DHT22;2362;50.780;0.292;2023-04-10T07:45:40;10.60;99.90
4697;DHT22;2362;50.780;0.292;2023-04-10T07:48:31;10.60;99.90
4697;DHT22;2362;50.780;0.292;2023-04-10T07:50:57;10.60;99.90
4697;DHT22;2362;50.780;0.292;2023-04-10T07:53:23;10.60;99.90
4697;DHT22;2362;50.780;0.292;2023-04-10T07:55:49;10.60;99.90
4697;DHT22;2362;50.780;0.292;2023-04-10T07:58:43;10.70;99.90
4697;DHT22;2362;50.780;0.292;2023-04-10T08:01:09;10.70;99.90
4697;DHT22;2362;50.780;0.292;2023-04-10T08:03:43;10.70;99.90
4697;DHT22;2362;50.780;0.292;2023-04-10T08:06:09;10.70;99.90
4697;DHT22;2362;50.780;0.292;2023-04-10T08:08:40;10.80;99.90
4697;DHT22;2362;50.780;0.292;2023-04-10T08:11:27;10.80;99.90
4697;DHT22;2362;50.780;0.292;2023-04-10T08:13:57;10.90;99.90
4697;DHT22;2362;50.780;0.292;2023-04-10T08:16:27;10.90;99.90
4697;DHT22;2362;50.780;0.292;2023-04-10T08:18:53;10.90;99.90
4697;DHT22;2362;50.780;0.292;2023-04-10T08:21:44;10.90;99.90
4697;DHT22;2362;50.780;0.292;2023-04-10T08:24:34;11.00;99.90
4697;DHT22;2362;50.780;0.292;2023-04-10T08:27:00;11.00;99.90
4697;DHT22;2362;50.780;0.292;2023-04-10T08:29:26;11.00;99.90
4697;DHT22;2362;50.780;0.292;2023-04-10T08:31:51;11.00;99.90
4697;DHT22;2362;50.780;0.292;2023-04-10T08:34:18;10.90;99.90
4697;DHT22;2362;50.780;0.292;2023-04-10T08:36:45;10.80;99.90
4697;DHT22;2362;50.780;0.292;2023-04-10T08:39:11;10.80;99.90
4697;DHT22;2362;50.780;0.292;2023-04-10T08:41:39;10.80;99.90
4697;DHT22;2362;50.780;0.292;2023-04-10T08:44:05;10.80;99.90
4697;DHT22;2362;50.780;0.292;2023-04-10T08:46:34;10.70;99.90
4697;DHT22;2362;50.780;0.292;2023-04-10T08:49:02;10.70;99.90
4697;DHT22;2362;50.780;0.292;2023-04-10T08:51:41;10.70;99.90
4697;DHT22;2362;50.780;0.292;2023-04-10T08:54:12;10.70;99.90
4697;DHT22;2362;50.780;0.292;2023-04-10T08:56:40;10.70;99.90
4697;DHT22;2362;50.780;0.292;2023-04-10T08:59:07;10.80;99.90
4697;DHT22;2362;50.780;0.292;2023-04-10T09:01:34;10.80;99.90
4697;DHT22;2362;50.780;0.292;2023-04-10T09:04:01;10.70;99.90
4697;DHT22;2362;50.780;0.292;2023-04-10T09:06:26;10.70;99.90
4697;DHT22;2362;50.780;0.292;2023-04-10T09:08:52;10.80;99.90
4697;DHT22;2362;50.780;0.292;2023-04-10T09:11:18;10.80;99.90
4697;DHT22;2362;50.780;0.292;2023-04-10T09:13:43;10.80;99.90
4697;DHT22;2362;50.780;0.292;2023-04-10T09:16:10;10.80;99.90
4697;DHT22;2362;50.780;0.292;2023-04-10T09:18:47;10.80;99.90
4697;DHT22;2362;50.780;0.292;2023-04-10T09:21:20;10.80;99.90
4697;DHT22;2362;50.780;0.292;2023-04-10T09:23:46;10.90;99.90
4697;DHT22;2362;50.780;0.292;2023-04-10T09:26:30;10.80;99.90
4697;DHT22;2362;50.780;0.292;2023-04-10T09:29:01;10.80;99.90
4697;DHT22;2362;50.780;0.292;2023-04-10T09:31:52;10.70;99.90
4697;DHT22;2362;50.780;0.292;2023-04-10T09:34:54;10.70;99.90
4697;DHT22;2362;50.780;0.292;2023-04-10T09:37:33;10.60;99.90
4697;DHT22;2362;50.780;0.292;2023-04-10T09:39:59;10.60;99.90
4697;DHT22;2362;50.780;0.292;2023-04-10T09:42:35;10.70;99.90
4697;DHT22;2362;50.780;0.292;2023-04-10T09:45:02;10.60;99.90
4697;DHT22;2362;50.780;0.292;2023-04-10T09:47:29;10.70;99.90
4697;DHT22;2362;50.780;0.292;2023-04-10T09:49:56;10.70;99.90
4697;DHT22;2362;50.780;0.292;2023-04-10T09:52:30;10.60;99.90
4697;DHT22;2362;50.780;0.292;2023-04-10T09:54:57;10.60;99.90
4697;DHT22;2362;50.780;0.292;2023-04-10T09:57:26;10.60;99.90
4697;DHT22;2362;50.780;0.292;2023-04-10T09:59:56;10.60;99.90
4697;DHT22;2362;50.780;0.292;2023-04-10T10:02:24;10.60;99.90
4697;DHT22;2362;50.780;0.292;2023-04-10T10:04:51;10.60;99.90
4697;DHT22;2362;50.780;0.292;2023-04-10T10:07:19;10.70;99.90
4697;DHT22;2362;50.780;0.292;2023-04-10T10:09:48;10.70;99.90
4697;DHT22;2362;50.780;0.292;2023-04-10T10:12:21;10.70;99.90
4697;DHT22;2362;50.780;0.292;2023-04-10T10:20:27;10.80;99.90
4697;DHT22;2362;50.780;0.292;2023-04-10T10:22:54;10.80;99.90
4697;DHT22;2362;50.780;0.292;2023-04-10T10:25:22;10.80;99.90
4697;DHT22;2362;50.780;0.292;2023-04-10T10:27:48;10.80;99.90
4697;DHT22;2362;50.780;0.292;2023-04-10T10:30:17;10.90;99.90
4697;DHT22;2362;50.780;0.292;2023-04-10T10:32:45;10.80;99.90
4697;DHT22;2362;50.780;0.292;2023-04-10T10:35:12;10.90;99.90
4697;DHT22;2362;50.780;0.292;2023-04-10T10:37:38;10.90;99.90
4697;DHT22;2362;50.780;0.292;2023-04-10T10:40:17;10.90;99.90
4697;DHT22;2362;50.780;0.292;2023-04-10T10:42:45;10.90;99.90
4697;DHT22;2362;50.780;0.292;2023-04-10T10:45:20;11.00;99.90
4697;DHT22;2362;50.780;0.292;2023-04-10T10:47:52;11.00;99.90
4697;DHT22;2362;50.780;0.292;2023-04-10T10:50:18;11.00;99.90
4697;DHT22;2362;50.780;0.292;2023-04-10T10:52:55;11.10;99.90
4697;DHT22;2362;50.780;0.292;2023-04-10T10:57:59;11.20;99.90
4697;DHT22;2362;50.780;0.292;2023-04-10T11:08:15;11.30;99.90
4697;DHT22;2362;50.780;0.292;2023-04-10T11:16:41;11.30;99.90
4697;DHT22;2362;50.780;0.292;2023-04-10T11:19:09;11.40;99.90
4697;DHT22;2362;50.780;0.292;2023-04-10T11:22:00;11.50;99.90
4697;DHT22;2362;50.780;0.292;2023-04-10T11:24:25;11.50;99.90
4697;DHT22;2362;50.780;0.292;2023-04-10T11:26:51;11.60;99.90
4697;DHT22;2362;50.780;0.292;2023-04-10T11:32:09;11.60;99.90
4697;DHT22;2362;50.780;0.292;2023-04-10T11:34:43;11.60;99.90
4697;DHT22;2362;50.780;0.292;2023-04-10T11:37:09;11.60;99.90
4697;DHT22;2362;50.780;0.292;2023-04-10T11:39:35;11.70;99.90
4697;DHT22;2362;50.780;0.292;2023-04-10T11:42:00;11.70;99.90
4697;DHT22;2362;50.780;0.292;2023-04-10T11:44:30;11.60;99.90
4697;DHT22;2362;50.780;0.292;2023-04-10T11:47:21;11.60;99.90
4697;DHT22;2362;50.780;0.292;2023-04-10T11:50:13;11.60;99.90
4697;DHT22;2362;50.780;0.292;2023-04-10T11:52:41;11.50;99.90
4697;DHT22;2362;50.780;0.292;2023-04-10T11:55:07;11.50;99.90
4697;DHT22;2362;50.780;0.292;2023-04-10T11:57:35;11.50;99.90
4697;DHT22;2362;50.780;0.292;2023-04-10T12:00:01;11.60;99.90
4697;DHT22;2362;50.780;0.292;2023-04-10T12:02:27;11.70;99.90
4697;DHT22;2362;50.780;0.292;2023-04-10T12:04:59;11.80;99.90
4697;DHT22;2362;50.780;0.292;2023-04-10T12:07:25;11.90;99.90
4697;DHT22;2362;50.780;0.292;2023-04-10T12:09:59;11.90;99.90
4697;DHT22;2362;50.780;0.292;2023-04-10T12:12:35;12.10;99.90
4697;DHT22;2362;50.780;0.292;2023-04-10T12:15:02;12.10;99.90
4697;DHT22;2362;50.780;0.292;2023-04-10T12:17:28;12.20;99.90
4697;DHT22;2362;50.780;0.292;2023-04-10T12:19:55;12.30;99.90
4697;DHT22;2362;50.780;0.292;2023-04-10T12:22:22;12.20;99.90
4697;DHT22;2362;50.780;0.292;2023-04-10T12:24:49;12.40;99.90
4697;DHT22;2362;50.780;0.292;2023-04-10T12:29:50;12.60;99.90
4697;DHT22;2362;50.780;0.292;2023-04-10T12:32:16;12.70;99.90
4697;DHT22;2362;50.780;0.292;2023-04-10T12:34:52;12.80;99.90
4697;DHT22;2362;50.780;0.292;2023-04-10T12:37:19;12.70;99.90
4697;DHT22;2362;50.780;0.292;2023-04-10T12:39:45;12.70;99.90
4697;DHT22;2362;50.780;0.292;2023-04-10T12:45:09;12.80;99.90
4697;DHT22;2362;50.780;0.292;2023-04-10T12:47:48;12.90;99.90
4697;DHT22;2362;50.780;0.292;2023-04-10T12:50:17;13.00;99.90
4697;DHT22;2362;50.780;0.292;2023-04-10T12:53:02;13.20;99.90
4697;DHT22;2362;50.780;0.292;2023-04-10T12:58:24;13.20;99.90
4697;DHT22;2362;50.780;0.292;2023-04-10T13:01:01;13.20;99.90
4697;DHT22;2362;50.780;0.292;2023-04-10T13:03:27;13.20;99.90
4697;DHT22;2362;50.780;0.292;2023-04-10T13:05:53;13.10;99.90
4697;DHT22;2362;50.780;0.292;2023-04-10T13:08:20;13.20;99.90
4697;DHT22;2362;50.780;0.292;2023-04-10T13:10:45;13.20;99.90
4697;DHT22;2362;50.780;0.292;2023-04-10T13:13:12;13.20;99.90
4697;DHT22;2362;50.780;0.292;2023-04-10T13:15:38;13.10;99.90
4697;DHT22;2362;50.780;0.292;2023-04-10T13:18:05;13.10;99.90
4697;DHT22;2362;50.780;0.292;2023-04-10T13:20:35;13.20;99.90
4697;DHT22;2362;50.780;0.292;2023-04-10T13:23:01;13.30;99.90
4697;DHT22;2362;50.780;0.292;2023-04-10T13:25:32;13.40;99.90
4697;DHT22;2362;50.780;0.292;2023-04-10T13:28:00;13.30;99.90
4697;DHT22;2362;50.780;0.292;2023-04-10T13:30:29;13.20;99.90
4697;DHT22;2362;50.780;0.292;2023-04-10T13:32:55;13.20;99.90
4697;DHT22;2362;50.780;0.292;2023-04-10T13:35:21;13.10;99.90
4697;DHT22;2362;50.780;0.292;2023-04-10T13:37:47;13.00;99.90
4697;DHT22;2362;50.780;0.292;2023-04-10T13:40:12;12.90;99.90
4697;DHT22;2362;50.780;0.292;2023-04-10T13:42:38;13.10;99.90
4697;DHT22;2362;50.780;0.292;2023-04-10T13:45:04;13.20;99.90
4697;DHT22;2362;50.780;0.292;2023-04-10T13:47:29;13.00;99.90
4697;DHT22;2362;50.780;0.292;2023-04-10T13:49:55;13.00;99.90
4697;DHT22;2362;50.780;0.292;2023-04-10T13:52:21;12.90;99.90
4697;DHT22;2362;50.780;0.292;2023-04-10T13:54:46;12.90;99.90
4697;DHT22;2362;50.780;0.292;2023-04-10T13:57:12;13.10;99.90
4697;DHT22;2362;50.780;0.292;2023-04-10T13:59:37;13.20;99.90
4697;DHT22;2362;50.780;0.292;2023-04-10T14:02:29;13.30;99.90
4697;DHT22;2362;50.780;0.292;2023-04-10T14:05:19;13.30;99.90
4697;DHT22;2362;50.780;0.292;2023-04-10T14:08:11;13.30;99.90
4697;DHT22;2362;50.780;0.292;2023-04-10T14:10:40;13.20;99.90
4697;DHT22;2362;50.780;0.292;2023-04-10T14:13:06;13.20;99.90
4697;DHT22;2362;50.780;0.292;2023-04-10T14:15:32;13.20;99.90
4697;DHT22;2362;50.780;0.292;2023-04-10T14:17:58;13.20;99.90
4697;DHT22;2362;50.780;0.292;2023-04-10T14:20:24;13.10;99.90
4697;DHT22;2362;50.780;0.292;2023-04-10T14:22:49;13.10;99.90
4697;DHT22;2362;50.780;0.292;2023-04-10T14:25:15;13.10;99.90
4697;DHT22;2362;50.780;0.292;2023-04-10T14:27:41;13.10;99.90
4697;DHT22;2362;50.780;0.292;2023-04-10T14:30:08;13.20;99.90
4697;DHT22;2362;50.780;0.292;2023-04-10T14:32:34;13.00;99.90
4697;DHT22;2362;50.780;0.292;2023-04-10T14:35:00;13.10;99.90
4697;DHT22;2362;50.780;0.292;2023-04-10T14:37:25;13.20;99.90
4697;DHT22;2362;50.780;0.292;2023-04-10T14:39:51;13.10;99.90
4697;DHT22;2362;50.780;0.292;2023-04-10T14:42:42;13.20;99.90
4697;DHT22;2362;50.780;0.292;2023-04-10T14:45:33;13.10;99.90
4697;DHT22;2362;50.780;0.292;2023-04-10T14:48:24;13.10;99.90
4697;DHT22;2362;50.780;0.292;2023-04-10T14:51:15;13.10;99.90
4697;DHT22;2362;50.780;0.292;2023-04-10T14:53:41;13.00;99.90
4697;DHT22;2362;50.780;0.292;2023-04-10T14:56:10;13.00;99.90
4697;DHT22;2362;50.780;0.292;2023-04-10T14:58:36;13.00;99.90
4697;DHT22;2362;50.780;0.292;2023-04-10T15:01:02;12.90;99.90
4697;DHT22;2362;50.780;0.292;2023-04-10T15:03:28;13.00;99.90
4697;DHT22;2362;50.780;0.292;2023-04-10T15:06:00;13.00;99.90
4697;DHT22;2362;50.780;0.292;2023-04-10T15:08:26;13.00;99.90
4697;DHT22;2362;50.780;0.292;2023-04-10T15:10:51;13.00;99.90
4697;DHT22;2362;50.780;0.292;2023-04-10T15:13:19;12.90;99.90
4697;DHT22;2362;50.780;0.292;2023-04-10T15:15:45;12.70;99.90
4697;DHT22;2362;50.780;0.292;2023-04-10T15:18:12;12.70;99.90
4697;DHT22;2362;50.780;0.292;2023-04-10T15:20:38;12.70;99.90
4697;DHT22;2362;50.780;0.292;2023-04-10T15:23:04;12.80;99.90
4697;DHT22;2362;50.780;0.292;2023-04-10T15:25:33;12.70;99.90
4697;DHT22;2362;50.780;0.292;2023-04-10T15:27:59;12.60;99.90
4697;DHT22;2362;50.780;0.292;2023-04-10T15:30:25;12.50;99.90
4697;DHT22;2362;50.780;0.292;2023-04-10T15:32:51;12.50;99.90
4697;DHT22;2362;50.780;0.292;2023-04-10T15:35:17;12.50;99.90
4697;DHT22;2362;50.780;0.292;2023-04-10T15:37:42;12.50;99.90
4697;DHT22;2362;50.780;0.292;2023-04-10T15:40:08;12.50;99.90
4697;DHT22;2362;50.780;0.292;2023-04-10T15:42:35;12.30;99.90
4697;DHT22;2362;50.780;0.292;2023-04-10T15:45:02;12.40;99.90
4697;DHT22;2362;50.780;0.292;2023-04-10T15:47:27;12.40;99.90
4697;DHT22;2362;50.780;0.292;2023-04-10T15:49:55;12.50;99.90
4697;DHT22;2362;50.780;0.292;2023-04-10T15:52:46;12.50;99.90
4697;DHT22;2362;50.780;0.292;2023-04-10T15:56:05;12.50;99.90
4697;DHT22;2362;50.780;0.292;2023-04-10T15:58:57;12.40;99.90
4697;DHT22;2362;50.780;0.292;2023-04-10T16:01:22;12.40;99.90
4697;DHT22;2362;50.780;0.292;2023-04-10T16:03:48;12.40;99.90
4697;DHT22;2362;50.780;0.292;2023-04-10T16:06:14;12.40;99.90
4697;DHT22;2362;50.780;0.292;2023-04-10T16:08:40;12.30;99.90
4697;DHT22;2362;50.780;0.292;2023-04-10T16:11:05;12.30;99.90
4697;DHT22;2362;50.780;0.292;2023-04-10T16:13:31;12.30;99.90
4697;DHT22;2362;50.780;0.292;2023-04-10T16:15:57;12.20;99.90
4697;DHT22;2362;50.780;0.292;2023-04-10T16:18:22;12.10;99.90
4697;DHT22;2362;50.780;0.292;2023-04-10T16:20:48;12.10;99.90
4697;DHT22;2362;50.780;0.292;2023-04-10T16:23:13;12.10;99.90
4697;DHT22;2362;50.780;0.292;2023-04-10T16:25:39;12.10;99.90
4697;DHT22;2362;50.780;0.292;2023-04-10T16:28:05;12.00;99.90
4697;DHT22;2362;50.780;0.292;2023-04-10T16:30:35;11.80;99.90
4697;DHT22;2362;50.780;0.292;2023-04-10T16:33:01;11.90;99.90
4697;DHT22;2362;50.780;0.292;2023-04-10T16:35:27;11.90;99.90
4697;DHT22;2362;50.780;0.292;2023-04-10T16:37:53;11.90;99.90
4697;DHT22;2362;50.780;0.292;2023-04-10T16:40:20;11.90;99.90
4697;DHT22;2362;50.780;0.292;2023-04-10T16:42:45;11.90;99.90
4697;DHT22;2362;50.780;0.292;2023-04-10T16:45:11;11.90;99.90
4697;DHT22;2362;50.780;0.292;2023-04-10T16:47:37;11.90;99.90
4697;DHT22;2362;50.780;0.292;2023-04-10T16:50:03;11.90;99.90
4697;DHT22;2362;50.780;0.292;2023-04-10T16:52:28;12.00;99.90
4697;DHT22;2362;50.780;0.292;2023-04-10T16:54:56;12.10;99.90
4697;DHT22;2362;50.780;0.292;2023-04-10T16:57:22;12.00;99.90
4697;DHT22;2362;50.780;0.292;2023-04-10T16:59:47;12.00;99.90